sensor_id;sensor_type;location;lat;lon;timestamp;temperature;humidity
612;DHT22;293;53.888;11.464;2023-10-13T00:01:05;11.60;99.90
612;DHT22;293;53.888;11.464;2023-10-13T00:03:33;11.60;99.90
612;DHT22;293;53.888;11.464;2023-10-13T00:06:02;11.60;99.90
612;DHT22;293;53.888;11.464;2023-10-13T00:08:30;11.60;99.90
612;DHT22;293;53.888;11.464;2023-10-13T00:10:57;11.70;99.90
612;DHT22;293;53.888;11.464;2023-10-13T00:13:27;11.70;99.90
612;DHT22;293;53.888;11.464;2023-10-13T00:15:56;11.80;99.90
612;DHT22;293;53.888;11.464;2023-10-13T00:18:26;11.80;99.90
612;DHT22;293;53.888;11.464;2023-10-13T00:20:58;11.90;99.90
612;DHT22;293;53.888;11.464;2023-10-13T00:23:25;11.80;99.90
612;DHT22;293;53.888;11.464;2023-10-13T00:25:54;11.90;99.90
612;DHT22;293;53.888;11.464;2023-10-13T00:28:25;11.90;99.90
612;DHT22;293;53.888;11.464;2023-10-13T00:31:01;12.00;99.90
612;DHT22;293;53.888;11.464;2023-10-13T00:33:36;12.00;99.90
612;DHT22;293;53.888;11.464;2023-10-13T00:36:03;12.00;99.90
612;DHT22;293;53.888;11.464;2023-10-13T00:38:31;12.00;99.90
612;DHT22;293;53.888;11.464;2023-10-13T00:40:59;12.00;99.90
612;DHT22;293;53.888;11.464;2023-10-13T00:43:44;12.00;99.90
612;DHT22;293;53.888;11.464;2023-10-13T00:46:11;12.10;99.90
612;DHT22;293;53.888;11.464;2023-10-13T00:48:41;12.10;99.90
612;DHT22;293;53.888;11.464;2023-10-13T00:51:12;12.20;99.90
612;DHT22;293;53.888;11.464;2023-10-13T00:53:48;12.20;99.90
612;DHT22;293;53.888;11.464;2023-10-13T00:56:17;12.20;99.90
612;DHT22;293;53.888;11.464;2023-10-13T00:58:48;12.20;99.90
612;DHT22;293;53.888;11.464;2023-10-13T01:01:17;12.20;99.90
612;DHT22;293;53.888;11.464;2023-10-13T01:03:44;12.30;99.90
612;DHT22;293;53.888;11.464;2023-10-13T01:06:14;12.30;99.90
612;DHT22;293;53.888;11.464;2023-10-13T01:08:42;12.30;99.90
612;DHT22;293;53.888;11.464;2023-10-13T01:11:10;12.40;99.90
612;DHT22;293;53.888;11.464;2023-10-13T01:13:37;12.30;99.90
612;DHT22;293;53.888;11.464;2023-10-13T01:16:07;12.30;99.90
612;DHT22;293;53.888;11.464;2023-10-13T01:18:33;12.40;99.90
612;DHT22;293;53.888;11.464;2023-10-13T01:21:05;12.40;99.90
612;DHT22;293;53.888;11.464;2023-10-13T01:23:34;12.50;99.90
612;DHT22;293;53.888;11.464;2023-10-13T01:26:04;12.50;99.90
612;DHT22;293;53.888;11.464;2023-10-13T01:28:31;12.60;99.90
612;DHT22;293;53.888;11.464;2023-10-13T01:31:10;12.60;99.90
612;DHT22;293;53.888;11.464;2023-10-13T01:33:37;12.60;99.90
612;DHT22;293;53.888;11.464;2023-10-13T01:36:04;12.60;99.90
612;DHT22;293;53.888;11.464;2023-10-13T01:38:36;12.60;99.90
612;DHT22;293;53.888;11.464;2023-10-13T01:41:05;12.60;99.90
612;DHT22;293;53.888;11.464;2023-10-13T01:43:34;12.70;99.90
612;DHT22;293;53.888;11.464;2023-10-13T01:46:00;12.70;99.90
612;DHT22;293;53.888;11.464;2023-10-13T01:48:29;12.70;99.90
612;DHT22;293;53.888;11.464;2023-10-13T01:50:58;12.70;99.90
612;DHT22;293;53.888;11.464;2023-10-13T01:53:29;12.70;99.90
612;DHT22;293;53.888;11.464;2023-10-13T01:55:56;12.70;99.90
612;DHT22;293;53.888;11.464;2023-10-13T01:58:24;12.70;99.90
612;DHT22;293;53.888;11.464;2023-10-13T02:00:52;12.80;99.90
612;DHT22;293;53.888;11.464;2023-10-13T02:03:18;12.80;99.90
612;DHT22;293;53.888;11.464;2023-10-13T02:05:48;12.80;99.90
612;DHT22;293;53.888;11.464;2023-10-13T02:08:14;12.80;99.90
612;DHT22;293;53.888;11.464;2023-10-13T02:10:48;12.80;99.90
612;DHT22;293;53.888;11.464;2023-10-13T02:13:16;12.80;99.90
612;DHT22;293;53.888;11.464;2023-10-13T02:15:44;12.80;99.90
612;DHT22;293;53.888;11.464;2023-10-13T02:18:12;12.80;99.90
612;DHT22;293;53.888;11.464;2023-10-13T02:20:39;12.80;99.90
612;DHT22;293;53.888;11.464;2023-10-13T02:23:10;12.90;99.90
612;DHT22;293;53.888;11.464;2023-10-13T02:25:37;12.90;99.90
612;DHT22;293;53.888;11.464;2023-10-13T02:28:09;12.90;99.90
612;DHT22;293;53.888;11.464;2023-10-13T02:30:41;12.90;99.90
612;DHT22;293;53.888;11.464;2023-10-13T02:33:11;12.90;99.90
612;DHT22;293;53.888;11.464;2023-10-13T02:35:39;12.90;99.90
612;DHT22;293;53.888;11.464;2023-10-13T02:38:09;12.90;99.90
612;DHT22;293;53.888;11.464;2023-10-13T02:40:41;13.00;99.90
612;DHT22;293;53.888;11.464;2023-10-13T02:43:07;13.00;99.90
612;DHT22;293;53.888;11.464;2023-10-13T02:45:34;13.00;99.90
612;DHT22;293;53.888;11.464;2023-10-13T02:48:04;13.00;99.90
612;DHT22;293;53.888;11.464;2023-10-13T02:50:40;13.00;99.90
612;DHT22;293;53.888;11.464;2023-10-13T02:53:10;13.00;99.90
612;DHT22;293;53.888;11.464;2023-10-13T02:55:49;13.00;99.90
612;DHT22;293;53.888;11.464;2023-10-13T02:58:15;13.00;99.90
612;DHT22;293;53.888;11.464;2023-10-13T03:00:43;13.00;99.90
612;DHT22;293;53.888;11.464;2023-10-13T03:03:12;13.10;99.90
612;DHT22;293;53.888;11.464;2023-10-13T03:05:44;13.10;99.90
612;DHT22;293;53.888;11.464;2023-10-13T03:08:12;13.10;99.90
612;DHT22;293;53.888;11.464;2023-10-13T03:10:51;13.10;99.90
612;DHT22;293;53.888;11.464;2023-10-13T03:13:20;13.10;99.90
612;DHT22;293;53.888;11.464;2023-10-13T03:15:45;13.10;99.90
612;DHT22;293;53.888;11.464;2023-10-13T03:18:14;13.10;99.90
612;DHT22;293;53.888;11.464;2023-10-13T03:20:43;13.10;99.90
612;DHT22;293;53.888;11.464;2023-10-13T03:23:15;13.10;99.90
612;DHT22;293;53.888;11.464;2023-10-13T03:25:41;13.20;99.90
612;DHT22;293;53.888;11.464;2023-10-13T03:28:09;13.20;99.90
612;DHT22;293;53.888;11.464;2023-10-13T03:30:39;13.20;99.90
612;DHT22;293;53.888;11.464;2023-10-13T03:33:08;13.20;99.90
612;DHT22;293;53.888;11.464;2023-10-13T03:35:39;13.20;99.90
612;DHT22;293;53.888;11.464;2023-10-13T03:38:07;13.20;99.90
612;DHT22;293;53.888;11.464;2023-10-13T03:40:43;13.30;99.90
612;DHT22;293;53.888;11.464;2023-10-13T03:43:14;13.30;99.90
612;DHT22;293;53.888;11.464;2023-10-13T03:45:44;13.30;99.90
612;DHT22;293;53.888;11.464;2023-10-13T03:48:14;13.30;99.90
612;DHT22;293;53.888;11.464;2023-10-13T03:50:56;13.30;99.90
612;DHT22;293;53.888;11.464;2023-10-13T03:53:32;13.40;99.90
612;DHT22;293;53.888;11.464;2023-10-13T03:56:05;13.40;99.90
612;DHT22;293;53.888;11.464;2023-10-13T03:58:38;13.40;99.90
612;DHT22;293;53.888;11.464;2023-10-13T04:01:08;13.40;99.90
612;DHT22;293;53.888;11.464;2023-10-13T04:03:37;13.40;99.90
612;DHT22;293;53.888;11.464;2023-10-13T04:06:09;13.40;99.90
612;DHT22;293;53.888;11.464;2023-10-13T04:08:42;13.50;99.90
612;DHT22;293;53.888;11.464;2023-10-13T04:11:14;13.50;99.90
612;DHT22;293;53.888;11.464;2023-10-13T04:13:58;13.50;99.90
612;DHT22;293;53.888;11.464;2023-10-13T04:16:42;13.60;99.90
612;DHT22;293;53.888;11.464;2023-10-13T04:19:18;13.60;99.90
612;DHT22;293;53.888;11.464;2023-10-13T04:21:56;13.60;99.90
612;DHT22;293;53.888;11.464;2023-10-13T04:24:25;13.70;99.90
612;DHT22;293;53.888;11.464;2023-10-13T04:27:06;13.70;99.90
612;DHT22;293;53.888;11.464;2023-10-13T04:29:50;13.80;99.90
612;DHT22;293;53.888;11.464;2023-10-13T04:32:27;13.80;99.90
612;DHT22;293;53.888;11.464;2023-10-13T04:34:59;13.80;99.90
612;DHT22;293;53.888;11.464;2023-10-13T04:37:36;13.80;99.90
612;DHT22;293;53.888;11.464;2023-10-13T04:40:18;13.80;99.90
612;DHT22;293;53.888;11.464;2023-10-13T04:42:46;13.90;99.90
612;DHT22;293;53.888;11.464;2023-10-13T04:45:19;13.90;99.90
612;DHT22;293;53.888;11.464;2023-10-13T04:48:09;13.90;99.90
612;DHT22;293;53.888;11.464;2023-10-13T04:50:59;13.90;99.90
612;DHT22;293;53.888;11.464;2023-10-13T04:53:47;13.90;99.90
612;DHT22;293;53.888;11.464;2023-10-13T04:56:44;13.90;99.90
612;DHT22;293;53.888;11.464;2023-10-13T04:59:34;14.00;99.90
612;DHT22;293;53.888;11.464;2023-10-13T05:02:03;14.00;99.90
612;DHT22;293;53.888;11.464;2023-10-13T05:05:09;14.00;99.90
612;DHT22;293;53.888;11.464;2023-10-13T05:07:55;14.00;99.90
612;DHT22;293;53.888;11.464;2023-10-13T05:10:41;14.10;99.90
612;DHT22;293;53.888;11.464;2023-10-13T05:13:26;14.10;99.90
612;DHT22;293;53.888;11.464;2023-10-13T05:16:10;14.10;99.90
612;DHT22;293;53.888;11.464;2023-10-13T05:18:54;14.10;99.90
612;DHT22;293;53.888;11.464;2023-10-13T05:21:38;14.10;99.90
612;DHT22;293;53.888;11.464;2023-10-13T05:24:22;14.10;99.90
612;DHT22;293;53.888;11.464;2023-10-13T05:27:08;14.10;99.90
612;DHT22;293;53.888;11.464;2023-10-13T05:29:52;14.10;99.90
612;DHT22;293;53.888;11.464;2023-10-13T05:32:36;14.20;99.90
612;DHT22;293;53.888;11.464;2023-10-13T05:35:21;14.20;99.90
612;DHT22;293;53.888;11.464;2023-10-13T05:38:05;14.20;99.90
612;DHT22;293;53.888;11.464;2023-10-13T05:40:53;14.30;99.90
612;DHT22;293;53.888;11.464;2023-10-13T05:43:39;14.30;99.90
612;DHT22;293;53.888;11.464;2023-10-13T05:46:23;14.30;99.90
612;DHT22;293;53.888;11.464;2023-10-13T05:49:10;14.30;99.90
612;DHT22;293;53.888;11.464;2023-10-13T05:52:05;14.30;99.90
612;DHT22;293;53.888;11.464;2023-10-13T05:54:33;14.30;99.90
612;DHT22;293;53.888;11.464;2023-10-13T05:57:20;14.40;99.90
612;DHT22;293;53.888;11.464;2023-10-13T06:00:02;14.30;99.90
612;DHT22;293;53.888;11.464;2023-10-13T06:02:47;14.40;99.90
612;DHT22;293;53.888;11.464;2023-10-13T06:05:45;14.40;99.90
612;DHT22;293;53.888;11.464;2023-10-13T06:08:30;14.40;99.90
612;DHT22;293;53.888;11.464;2023-10-13T06:11:15;14.50;99.90
612;DHT22;293;53.888;11.464;2023-10-13T06:13:59;14.50;99.90
612;DHT22;293;53.888;11.464;2023-10-13T06:16:44;14.50;99.90
612;DHT22;293;53.888;11.464;2023-10-13T06:19:29;14.70;99.90
612;DHT22;293;53.888;11.464;2023-10-13T06:22:14;14.60;99.90
612;DHT22;293;53.888;11.464;2023-10-13T06:24:58;14.70;99.90
612;DHT22;293;53.888;11.464;2023-10-13T06:27:42;14.80;99.90
612;DHT22;293;53.888;11.464;2023-10-13T06:30:26;14.80;99.90
612;DHT22;293;53.888;11.464;2023-10-13T06:32:54;14.80;99.90
612;DHT22;293;53.888;11.464;2023-10-13T06:35:21;14.90;99.90
612;DHT22;293;53.888;11.464;2023-10-13T06:37:49;14.90;99.90
612;DHT22;293;53.888;11.464;2023-10-13T06:40:17;14.90;99.90
612;DHT22;293;53.888;11.464;2023-10-13T06:42:51;15.00;99.90
612;DHT22;293;53.888;11.464;2023-10-13T06:45:19;15.10;99.90
612;DHT22;293;53.888;11.464;2023-10-13T06:47:47;15.10;99.90
612;DHT22;293;53.888;11.464;2023-10-13T06:50:20;15.10;99.90
612;DHT22;293;53.888;11.464;2023-10-13T06:52:50;15.20;99.90
612;DHT22;293;53.888;11.464;2023-10-13T06:55:20;15.20;99.90
612;DHT22;293;53.888;11.464;2023-10-13T06:57:53;15.30;99.90
612;DHT22;293;53.888;11.464;2023-10-13T07:00:20;15.30;99.90
612;DHT22;293;53.888;11.464;2023-10-13T07:02:55;15.40;99.90
612;DHT22;293;53.888;11.464;2023-10-13T07:05:34;15.40;99.90
612;DHT22;293;53.888;11.464;2023-10-13T07:08:01;15.50;99.90
612;DHT22;293;53.888;11.464;2023-10-13T07:10:30;15.50;99.90
612;DHT22;293;53.888;11.464;2023-10-13T07:13:01;15.50;99.90
612;DHT22;293;53.888;11.464;2023-10-13T07:15:30;15.50;99.90
612;DHT22;293;53.888;11.464;2023-10-13T07:17:57;15.60;99.90
612;DHT22;293;53.888;11.464;2023-10-13T07:20:26;15.60;99.90
612;DHT22;293;53.888;11.464;2023-10-13T07:23:01;15.60;99.90
612;DHT22;293;53.888;11.464;2023-10-13T07:25:29;15.70;99.90
612;DHT22;293;53.888;11.464;2023-10-13T07:27:58;15.70;99.90
612;DHT22;293;53.888;11.464;2023-10-13T07:30:26;15.80;99.90
612;DHT22;293;53.888;11.464;2023-10-13T07:32:53;15.80;99.90
612;DHT22;293;53.888;11.464;2023-10-13T07:35:23;15.80;99.90
612;DHT22;293;53.888;11.464;2023-10-13T07:37:52;15.90;99.90
612;DHT22;293;53.888;11.464;2023-10-13T07:40:22;15.90;99.90
612;DHT22;293;53.888;11.464;2023-10-13T07:43:05;15.90;99.90
612;DHT22;293;53.888;11.464;2023-10-13T07:45:36;15.90;99.90
612;DHT22;293;53.888;11.464;2023-10-13T07:48:04;16.00;99.90
612;DHT22;293;53.888;11.464;2023-10-13T07:50:38;16.00;99.90
612;DHT22;293;53.888;11.464;2023-10-13T07:53:05;16.00;99.90
612;DHT22;293;53.888;11.464;2023-10-13T07:55:45;16.10;99.90
612;DHT22;293;53.888;11.464;2023-10-13T07:58:14;16.10;99.90
612;DHT22;293;53.888;11.464;2023-10-13T08:00:41;16.10;99.90
612;DHT22;293;53.888;11.464;2023-10-13T08:03:19;16.20;99.90
612;DHT22;293;53.888;11.464;2023-10-13T08:06:00;16.20;99.90
612;DHT22;293;53.888;11.464;2023-10-13T08:08:32;16.20;99.90
612;DHT22;293;53.888;11.464;2023-10-13T08:11:18;16.30;99.90
612;DHT22;293;53.888;11.464;2023-10-13T08:13:57;16.30;99.90
612;DHT22;293;53.888;11.464;2023-10-13T08:16:26;16.30;99.90
612;DHT22;293;53.888;11.464;2023-10-13T08:19:12;16.30;99.90
612;DHT22;293;53.888;11.464;2023-10-13T08:21:41;16.40;99.90
612;DHT22;293;53.888;11.464;2023-10-13T08:24:16;16.40;99.90
612;DHT22;293;53.888;11.464;2023-10-13T08:26:53;16.50;99.90
612;DHT22;293;53.888;11.464;2023-10-13T08:29:39;16.60;99.90
612;DHT22;293;53.888;11.464;2023-10-13T08:32:24;16.60;99.90
612;DHT22;293;53.888;11.464;2023-10-13T08:35:02;16.60;99.90
612;DHT22;293;53.888;11.464;2023-10-13T08:37:48;16.60;99.90
612;DHT22;293;53.888;11.464;2023-10-13T08:40:30;16.60;99.90
612;DHT22;293;53.888;11.464;2023-10-13T08:43:16;16.70;99.90
612;DHT22;293;53.888;11.464;2023-10-13T08:45:43;16.70;99.90
612;DHT22;293;53.888;11.464;2023-10-13T08:48:21;16.80;99.90
612;DHT22;293;53.888;11.464;2023-10-13T08:50:52;16.90;99.90
612;DHT22;293;53.888;11.464;2023-10-13T08:53:22;17.00;99.90
612;DHT22;293;53.888;11.464;2023-10-13T08:56:00;17.10;99.90
612;DHT22;293;53.888;11.464;2023-10-13T08:58:36;17.20;99.90
612;DHT22;293;53.888;11.464;2023-10-13T09:01:22;17.10;99.90
612;DHT22;293;53.888;11.464;2023-10-13T09:04:06;17.10;99.90
612;DHT22;293;53.888;11.464;2023-10-13T09:06:49;17.10;99.90
612;DHT22;293;53.888;11.464;2023-10-13T09:09:30;17.10;99.90
612;DHT22;293;53.888;11.464;2023-10-13T09:12:11;17.00;99.90
612;DHT22;293;53.888;11.464;2023-10-13T09:14:39;17.00;99.90
612;DHT22;293;53.888;11.464;2023-10-13T09:17:10;17.00;99.90
612;DHT22;293;53.888;11.464;2023-10-13T09:20:01;17.00;99.90
612;DHT22;293;53.888;11.464;2023-10-13T09:22:50;17.00;99.90
612;DHT22;293;53.888;11.464;2023-10-13T09:25:34;17.00;99.90
612;DHT22;293;53.888;11.464;2023-10-13T09:28:01;17.00;99.90
612;DHT22;293;53.888;11.464;2023-10-13T09:30:44;17.00;99.90
612;DHT22;293;53.888;11.464;2023-10-13T09:33:10;17.00;99.90
612;DHT22;293;53.888;11.464;2023-10-13T09:35:43;17.00;99.90
612;DHT22;293;53.888;11.464;2023-10-13T09:38:09;17.00;99.90
612;DHT22;293;53.888;11.464;2023-10-13T09:40:37;17.00;99.90
612;DHT22;293;53.888;11.464;2023-10-13T09:43:04;17.00;99.90
612;DHT22;293;53.888;11.464;2023-10-13T09:45:35;17.00;99.90
612;DHT22;293;53.888;11.464;2023-10-13T09:48:10;17.00;99.90
612;DHT22;293;53.888;11.464;2023-10-13T09:50:44;17.10;99.90
612;DHT22;293;53.888;11.464;2023-10-13T09:53:11;17.10;99.90
612;DHT22;293;53.888;11.464;2023-10-13T09:55:43;17.20;99.90
612;DHT22;293;53.888;11.464;2023-10-13T09:58:12;17.20;99.90
612;DHT22;293;53.888;11.464;2023-10-13T10:00:44;17.20;99.90
612;DHT22;293;53.888;11.464;2023-10-13T10:03:24;17.20;99.90
612;DHT22;293;53.888;11.464;2023-10-13T10:06:05;17.20;99.90
612;DHT22;293;53.888;11.464;2023-10-13T10:08:39;17.20;99.90
612;DHT22;293;53.888;11.464;2023-10-13T10:11:28;17.20;99.90
612;DHT22;293;53.888;11.464;2023-10-13T10:14:07;17.20;99.90
612;DHT22;293;53.888;11.464;2023-10-13T10:16:43;17.20;99.90
612;DHT22;293;53.888;11.464;2023-10-13T10:19:16;17.20;99.90
612;DHT22;293;53.888;11.464;2023-10-13T10:21:44;17.20;99.90
612;DHT22;293;53.888;11.464;2023-10-13T10:24:14;17.20;99.90
612;DHT22;293;53.888;11.464;2023-10-13T10:26:53;17.20;99.90
612;DHT22;293;53.888;11.464;2023-10-13T10:29:20;17.20;99.90
612;DHT22;293;53.888;11.464;2023-10-13T10:31:47;17.30;99.90
612;DHT22;293;53.888;11.464;2023-10-13T10:34:15;17.40;99.90
612;DHT22;293;53.888;11.464;2023-10-13T10:36:47;17.60;99.90
612;DHT22;293;53.888;11.464;2023-10-13T10:39:18;17.90;99.90
612;DHT22;293;53.888;11.464;2023-10-13T10:41:45;17.90;99.90
612;DHT22;293;53.888;11.464;2023-10-13T10:44:18;18.00;99.90
612;DHT22;293;53.888;11.464;2023-10-13T10:46:52;18.20;99.90
612;DHT22;293;53.888;11.464;2023-10-13T10:49:25;18.10;99.90
612;DHT22;293;53.888;11.464;2023-10-13T10:51:58;18.20;99.90
612;DHT22;293;53.888;11.464;2023-10-13T10:54:29;18.10;99.90
612;DHT22;293;53.888;11.464;2023-10-13T10:56:58;18.10;99.90
612;DHT22;293;53.888;11.464;2023-10-13T10:59:38;18.20;99.90
612;DHT22;293;53.888;11.464;2023-10-13T11:02:05;18.20;99.90
612;DHT22;293;53.888;11.464;2023-10-13T11:04:35;18.20;99.90
612;DHT22;293;53.888;11.464;2023-10-13T11:07:21;18.30;99.90
612;DHT22;293;53.888;11.464;2023-10-13T11:09:49;18.20;99.90
612;DHT22;293;53.888;11.464;2023-10-13T11:12:19;18.30;99.90
612;DHT22;293;53.888;11.464;2023-10-13T11:15:02;18.20;99.90
612;DHT22;293;53.888;11.464;2023-10-13T11:17:32;18.30;99.90
612;DHT22;293;53.888;11.464;2023-10-13T11:20:21;18.20;99.90
612;DHT22;293;53.888;11.464;2023-10-13T11:22:58;18.30;99.90
612;DHT22;293;53.888;11.464;2023-10-13T11:25:26;18.30;99.90
612;DHT22;293;53.888;11.464;2023-10-13T11:28:09;18.30;99.90
612;DHT22;293;53.888;11.464;2023-10-13T11:30:43;18.30;99.90
612;DHT22;293;53.888;11.464;2023-10-13T11:33:15;18.30;99.90
612;DHT22;293;53.888;11.464;2023-10-13T11:35:48;18.40;99.90
612;DHT22;293;53.888;11.464;2023-10-13T11:38:25;18.40;99.90
612;DHT22;293;53.888;11.464;2023-10-13T11:40:52;18.40;99.90
612;DHT22;293;53.888;11.464;2023-10-13T11:43:38;18.40;99.90
612;DHT22;293;53.888;11.464;2023-10-13T11:46:19;18.50;99.90
612;DHT22;293;53.888;11.464;2023-10-13T11:49:00;18.70;99.90
612;DHT22;293;53.888;11.464;2023-10-13T11:51:34;18.80;99.90
612;DHT22;293;53.888;11.464;2023-10-13T11:54:03;19.00;99.90
612;DHT22;293;53.888;11.464;2023-10-13T11:56:30;19.10;99.90
612;DHT22;293;53.888;11.464;2023-10-13T11:58:57;19.20;99.90
612;DHT22;293;53.888;11.464;2023-10-13T12:01:27;19.30;99.90
612;DHT22;293;53.888;11.464;2023-10-13T12:04:08;19.40;99.90
612;DHT22;293;53.888;11.464;2023-10-13T12:07:02;19.40;99.90
612;DHT22;293;53.888;11.464;2023-10-13T12:09:43;19.50;99.90
612;DHT22;293;53.888;11.464;2023-10-13T12:12:29;19.60;99.90
612;DHT22;293;53.888;11.464;2023-10-13T12:14:57;19.70;99.90
612;DHT22;293;53.888;11.464;2023-10-13T12:17:34;19.70;99.90
612;DHT22;293;53.888;11.464;2023-10-13T12:20:02;19.80;99.90
612;DHT22;293;53.888;11.464;2023-10-13T12:22:32;19.80;99.90
612;DHT22;293;53.888;11.464;2023-10-13T12:25:05;19.90;99.90
612;DHT22;293;53.888;11.464;2023-10-13T12:27:44;19.90;99.90
612;DHT22;293;53.888;11.464;2023-10-13T12:30:14;19.80;99.90
612;DHT22;293;53.888;11.464;2023-10-13T12:32:48;19.80;99.90
612;DHT22;293;53.888;11.464;2023-10-13T12:35:25;19.80;99.90
612;DHT22;293;53.888;11.464;2023-10-13T12:37:57;19.80;99.90
612;DHT22;293;53.888;11.464;2023-10-13T12:40:31;19.90;99.90
612;DHT22;293;53.888;11.464;2023-10-13T12:43:15;19.90;99.90
612;DHT22;293;53.888;11.464;2023-10-13T12:45:59;19.90;99.90
612;DHT22;293;53.888;11.464;2023-10-13T12:48:44;19.80;99.90
612;DHT22;293;53.888;11.464;2023-10-13T12:51:29;19.90;99.90
612;DHT22;293;53.888;11.464;2023-10-13T12:54:17;19.90;99.90
612;DHT22;293;53.888;11.464;2023-10-13T12:56:49;19.90;99.90
612;DHT22;293;53.888;11.464;2023-10-13T12:59:22;19.90;99.90
612;DHT22;293;53.888;11.464;2023-10-13T13:01:52;19.90;99.90
612;DHT22;293;53.888;11.464;2023-10-13T13:04:19;19.90;99.90
612;DHT22;293;53.888;11.464;2023-10-13T13:06:47;19.90;99.90
612;DHT22;293;53.888;11.464;2023-10-13T13:09:14;20.00;99.90
612;DHT22;293;53.888;11.464;2023-10-13T13:11:42;20.00;99.90
612;DHT22;293;53.888;11.464;2023-10-13T13:14:14;20.00;99.90
612;DHT22;293;53.888;11.464;2023-10-13T13:16:41;20.00;99.90
612;DHT22;293;53.888;11.464;2023-10-13T13:19:13;20.10;99.90
612;DHT22;293;53.888;11.464;2023-10-13T13:21:49;20.00;99.90
612;DHT22;293;53.888;11.464;2023-10-13T13:24:16;20.10;99.90
612;DHT22;293;53.888;11.464;2023-10-13T13:26:44;20.10;99.90
612;DHT22;293;53.888;11.464;2023-10-13T13:29:13;20.10;99.90
612;DHT22;293;53.888;11.464;2023-10-13T13:31:42;20.10;99.90
612;DHT22;293;53.888;11.464;2023-10-13T13:34:10;20.10;99.90
612;DHT22;293;53.888;11.464;2023-10-13T13:36:38;20.20;99.90
612;DHT22;293;53.888;11.464;2023-10-13T13:39:10;20.20;99.90
612;DHT22;293;53.888;11.464;2023-10-13T13:41:38;20.20;99.90
612;DHT22;293;53.888;11.464;2023-10-13T13:44:06;20.20;99.90
612;DHT22;293;53.888;11.464;2023-10-13T13:46:40;20.20;99.90
612;DHT22;293;53.888;11.464;2023-10-13T13:49:09;20.20;99.90
612;DHT22;293;53.888;11.464;2023-10-13T13:51:44;20.20;99.90
612;DHT22;293;53.888;11.464;2023-10-13T13:54:18;20.20;99.90
612;DHT22;293;53.888;11.464;2023-10-13T13:56:45;20.20;99.90
612;DHT22;293;53.888;11.464;2023-10-13T13:59:13;20.20;99.90
612;DHT22;293;53.888;11.464;2023-10-13T14:01:45;20.30;99.90
612;DHT22;293;53.888;11.464;2023-10-13T14:04:12;20.40;99.90
612;DHT22;293;53.888;11.464;2023-10-13T14:06:43;20.40;99.90
612;DHT22;293;53.888;11.464;2023-10-13T14:09:11;20.40;99.90
612;DHT22;293;53.888;11.464;2023-10-13T14:11:42;20.50;99.90
612;DHT22;293;53.888;11.464;2023-10-13T14:14:27;20.50;99.90
612;DHT22;293;53.888;11.464;2023-10-13T14:16:59;20.50;99.90
612;DHT22;293;53.888;11.464;2023-10-13T14:19:33;20.50;99.90
612;DHT22;293;53.888;11.464;2023-10-13T14:22:01;20.50;99.90
612;DHT22;293;53.888;11.464;2023-10-13T14:24:33;20.50;99.90
612;DHT22;293;53.888;11.464;2023-10-13T14:27:09;20.50;99.90
612;DHT22;293;53.888;11.464;2023-10-13T14:29:42;20.60;99.90
612;DHT22;293;53.888;11.464;2023-10-13T14:32:11;20.60;99.90
612;DHT22;293;53.888;11.464;2023-10-13T14:34:39;20.70;99.90
612;DHT22;293;53.888;11.464;2023-10-13T14:37:07;20.60;99.90
612;DHT22;293;53.888;11.464;2023-10-13T14:39:34;20.60;99.90
612;DHT22;293;53.888;11.464;2023-10-13T14:42:03;20.60;99.90
612;DHT22;293;53.888;11.464;2023-10-13T14:44:32;20.60;99.90
612;DHT22;293;53.888;11.464;2023-10-13T14:47:00;20.60;99.90
612;DHT22;293;53.888;11.464;2023-10-13T14:49:28;20.60;99.90
612;DHT22;293;53.888;11.464;2023-10-13T14:51:55;20.60;99.90
612;DHT22;293;53.888;11.464;2023-10-13T14:54:22;20.60;99.90
612;DHT22;293;53.888;11.464;2023-10-13T14:56:59;20.60;99.90
612;DHT22;293;53.888;11.464;2023-10-13T14:59:27;20.50;99.90
612;DHT22;293;53.888;11.464;2023-10-13T15:02:00;20.50;99.90
612;DHT22;293;53.888;11.464;2023-10-13T15:04:29;20.40;99.90
612;DHT22;293;53.888;11.464;2023-10-13T15:06:59;20.40;99.90
612;DHT22;293;53.888;11.464;2023-10-13T15:09:27;20.30;99.90
612;DHT22;293;53.888;11.464;2023-10-13T15:11:54;20.30;99.90
612;DHT22;293;53.888;11.464;2023-10-13T15:14:21;20.20;99.90
612;DHT22;293;53.888;11.464;2023-10-13T15:16:49;20.20;99.90
612;DHT22;293;53.888;11.464;2023-10-13T15:19:19;20.20;99.90
612;DHT22;293;53.888;11.464;2023-10-13T15:21:46;20.20;99.90
612;DHT22;293;53.888;11.464;2023-10-13T15:24:16;20.10;99.90
612;DHT22;293;53.888;11.464;2023-10-13T15:26:43;20.10;99.90
612;DHT22;293;53.888;11.464;2023-10-13T15:29:14;20.10;99.90
612;DHT22;293;53.888;11.464;2023-10-13T15:31:42;20.20;99.90
612;DHT22;293;53.888;11.464;2023-10-13T15:34:21;20.10;99.90
612;DHT22;293;53.888;11.464;2023-10-13T15:36:49;20.20;99.90
612;DHT22;293;53.888;11.464;2023-10-13T15:39:18;20.20;99.90
612;DHT22;293;53.888;11.464;2023-10-13T15:41:49;20.20;99.90
612;DHT22;293;53.888;11.464;2023-10-13T15:44:18;20.20;99.90
612;DHT22;293;53.888;11.464;2023-10-13T15:46:46;20.20;99.90
612;DHT22;293;53.888;11.464;2023-10-13T15:49:15;20.20;99.90
612;DHT22;293;53.888;11.464;2023-10-13T15:51:43;20.20;99.90
612;DHT22;293;53.888;11.464;2023-10-13T15:54:10;20.10;99.90
612;DHT22;293;53.888;11.464;2023-10-13T15:56:41;20.10;99.90
612;DHT22;293;53.888;11.464;2023-10-13T15:59:09;20.10;99.90
612;DHT22;293;53.888;11.464;2023-10-13T16:01:36;20.10;99.90
612;DHT22;293;53.888;11.464;2023-10-13T16:04:04;20.00;99.90
612;DHT22;293;53.888;11.464;2023-10-13T16:06:37;20.10;99.90
612;DHT22;293;53.888;11.464;2023-10-13T16:09:05;20.10;99.90
612;DHT22;293;53.888;11.464;2023-10-13T16:11:40;20.10;99.90
612;DHT22;293;53.888;11.464;2023-10-13T16:14:08;20.10;99.90
612;DHT22;293;53.888;11.464;2023-10-13T16:16:36;20.10;99.90
612;DHT22;293;53.888;11.464;2023-10-13T16:19:03;20.10;99.90
612;DHT22;293;53.888;11.464;2023-10-13T16:21:33;20.10;99.90
612;DHT22;293;53.888;11.464;2023-10-13T16:24:00;20.10;99.90
612;DHT22;293;53.888;11.464;2023-10-13T16:26:29;20.10;99.90
612;DHT22;293;53.888;11.464;2023-10-13T16:28:56;20.10;99.90
612;DHT22;293;53.888;11.464;2023-10-13T16:31:25;20.10;99.90
612;DHT22;293;53.888;11.464;2023-10-13T16:33:53;20.20;99.90
612;DHT22;293;53.888;11.464;2023-10-13T16:36:25;20.10;99.90
612;DHT22;293;53.888;11.464;2023-10-13T16:38:52;20.10;99.90
612;DHT22;293;53.888;11.464;2023-10-13T16:41:23;20.20;99.90
612;DHT22;293;53.888;11.464;2023-10-13T16:43:52;20.20;99.90
612;DHT22;293;53.888;11.464;2023-10-13T16:46:19;20.10;99.90
612;DHT22;293;53.888;11.464;2023-10-13T16:48:46;20.10;99.90
612;DHT22;293;53.888;11.464;2023-10-13T16:51:15;20.10;99.90
612;DHT22;293;53.888;11.464;2023-10-13T16:53:43;20.10;99.90
612;DHT22;293;53.888;11.464;2023-10-13T16:56:15;20.10;99.90